createdAt,value
2022-10-31T00:01:37.961Z,22.80
2022-10-31T00:04:05.912Z,31.55
2022-10-31T00:06:33.751Z,25.95
2022-10-31T00:09:03.778Z,26.27
2022-10-31T00:11:31.368Z,22.17
2022-10-31T00:14:01.455Z,22.25
2022-10-31T00:16:29.576Z,27.65
2022-10-31T00:18:59.876Z,23.80
2022-10-31T00:21:27.227Z,24.13
2022-10-31T00:23:54.587Z,23.98
2022-10-31T00:26:21.795Z,26.17
2022-10-31T00:28:48.929Z,23.67
2022-10-31T00:31:16.303Z,22.63
2022-10-31T00:33:45.004Z,24.88
2022-10-31T00:36:15.415Z,25.65
2022-10-31T00:38:43.894Z,26.33
2022-10-31T00:41:12.117Z,27.75
2022-10-31T00:43:42.162Z,23.77
2022-10-31T00:46:10.176Z,22.63
2022-10-31T00:48:38.870Z,25.13
2022-10-31T00:51:06.806Z,21.02
2022-10-31T00:53:34.319Z,26.52
2022-10-31T00:56:02.142Z,26.65
2022-10-31T00:58:29.639Z,19.77
2022-10-31T01:00:57.061Z,24.08
2022-10-31T01:03:27.756Z,22.13
2022-10-31T01:06:01.284Z,23.35
2022-10-31T01:08:29.127Z,26.48
2022-10-31T01:11:04.331Z,20.45
2022-10-31T01:13:33.766Z,22.17
2022-10-31T01:16:03.751Z,20.50
2022-10-31T01:18:32.167Z,26.02
2022-10-31T01:21:06.689Z,22.98
2022-10-31T01:23:34.622Z,22.35
2022-10-31T01:26:04.495Z,21.42
2022-10-31T01:28:33.384Z,25.17
2022-10-31T01:31:08.501Z,21.92
2022-10-31T01:33:37.049Z,20.23
2022-10-31T01:36:25.825Z,22.83
2022-10-31T01:38:54.702Z,23.42
2022-10-31T01:41:28.255Z,24.00
2022-10-31T01:44:04.031Z,22.67
2022-10-31T01:46:59.760Z,18.40
2022-10-31T01:49:47.328Z,26.95
2022-10-31T01:52:27.081Z,28.30
2022-10-31T01:55:19.031Z,22.85
2022-10-31T01:57:49.619Z,19.25
2022-10-31T02:00:19.788Z,23.63
2022-10-31T02:02:48.905Z,23.48
2022-10-31T02:05:28.852Z,22.33
2022-10-31T02:08:13.327Z,21.08
2022-10-31T02:10:43.386Z,22.95
2022-10-31T02:13:11.327Z,19.92
2022-10-31T02:15:46.464Z,22.95
2022-10-31T02:18:13.579Z,24.95
2022-10-31T02:21:16.081Z,20.17
2022-10-31T02:24:18.560Z,22.00
2022-10-31T02:29:52.219Z,18.10
2022-10-31T02:32:25.219Z,20.42
2022-10-31T02:35:14.951Z,21.83
2022-10-31T02:38:12.015Z,24.85
2022-10-31T02:41:06.812Z,24.67
2022-10-31T02:44:16.957Z,21.23
2022-10-31T02:46:53.084Z,19.92
2022-10-31T02:49:50.467Z,22.30
2022-10-31T02:52:22.027Z,21.15
2022-10-31T02:54:49.459Z,22.80
2022-10-31T02:57:21.608Z,18.58
2022-10-31T03:02:37.217Z,21.17
2022-10-31T03:05:15.706Z,21.95
2022-10-31T03:07:47.689Z,19.27
2022-10-31T03:10:37.713Z,18.83
2022-10-31T03:13:31.288Z,20.42
2022-10-31T03:16:09.416Z,21.92
2022-10-31T03:18:53.232Z,20.80
2022-10-31T03:21:26.903Z,24.85
2022-10-31T03:23:55.948Z,18.45
2022-10-31T03:26:24.981Z,24.27
2022-10-31T03:29:01.322Z,25.73
2022-10-31T03:31:33.297Z,19.05
2022-10-31T03:34:02.137Z,20.55
2022-10-31T03:36:34.085Z,18.58
2022-10-31T03:39:04.833Z,20.85
2022-10-31T03:41:36.296Z,20.20
2022-10-31T03:44:08.857Z,22.15
2022-10-31T03:46:38.182Z,19.40
2022-10-31T03:49:05.866Z,17.92
2022-10-31T03:51:39.770Z,17.73
2022-10-31T03:54:14.668Z,18.77
2022-10-31T03:56:50.896Z,22.52
2022-10-31T03:59:38.004Z,22.52
2022-10-31T04:02:10.782Z,21.70
2022-10-31T04:04:39.337Z,24.40
2022-10-31T04:07:08.297Z,18.55
2022-10-31T04:09:40.930Z,20.33
2022-10-31T04:12:09.945Z,18.20
2022-10-31T04:14:57.131Z,20.45
2022-10-31T04:17:28.291Z,22.65
2022-10-31T04:19:55.988Z,20.85
2022-10-31T04:22:23.393Z,21.88
2022-10-31T04:24:50.322Z,23.70
2022-10-31T04:27:18.462Z,25.63
2022-10-31T04:29:48.346Z,29.67
2022-10-31T04:32:18.613Z,21.17
2022-10-31T04:34:45.849Z,30.23
2022-10-31T04:37:12.749Z,24.40
2022-10-31T04:39:39.680Z,20.00
2022-10-31T04:42:29.713Z,23.98
2022-10-31T04:47:27.052Z,27.17
2022-10-31T04:49:54.369Z,24.92
2022-10-31T04:52:22.431Z,24.95
2022-10-31T04:54:49.460Z,32.33
2022-10-31T04:57:42.997Z,20.48
2022-10-31T05:00:11.231Z,23.30
2022-10-31T05:02:45.673Z,23.20
2022-10-31T05:05:14.277Z,25.42
2022-10-31T05:07:43.344Z,25.77
2022-10-31T05:10:16.355Z,22.88
2022-10-31T05:12:51.596Z,23.30
2022-10-31T05:15:37.465Z,27.98
2022-10-31T05:18:23.691Z,28.02
2022-10-31T05:21:11.012Z,25.77
2022-10-31T05:26:16.126Z,22.45
2022-10-31T05:28:43.015Z,24.30
2022-10-31T05:31:11.780Z,29.13
2022-10-31T05:33:38.839Z,23.67
2022-10-31T05:36:24.399Z,29.27
2022-10-31T05:39:17.689Z,28.77
2022-10-31T05:41:48.471Z,30.85
2022-10-31T05:44:20.269Z,31.67
2022-10-31T05:47:07.459Z,25.02
2022-10-31T05:49:53.545Z,27.17
2022-10-31T05:52:39.226Z,27.15
2022-10-31T05:55:16.905Z,24.75
2022-10-31T05:57:58.820Z,28.10
2022-10-31T06:00:27.593Z,25.92
2022-10-31T06:03:05.957Z,26.50
2022-10-31T06:05:42.851Z,25.63
2022-10-31T06:08:10.042Z,26.58
2022-10-31T06:10:39.351Z,33.10
2022-10-31T06:13:07.800Z,23.70
2022-10-31T06:15:43.645Z,25.35
2022-10-31T06:18:12.173Z,27.73
2022-10-31T06:20:51.096Z,30.73
2022-10-31T06:23:18.008Z,30.15
2022-10-31T06:25:51.113Z,27.85
2022-10-31T06:28:18.311Z,27.33
2022-10-31T06:31:00.325Z,24.73
2022-10-31T06:33:27.280Z,26.88
2022-10-31T06:36:03.119Z,29.05
2022-10-31T06:38:30.200Z,23.13
2022-10-31T06:40:58.458Z,23.98
2022-10-31T06:43:28.953Z,25.60
2022-10-31T06:46:18.928Z,28.33
2022-10-31T06:49:01.121Z,29.30
2022-10-31T06:51:43.232Z,28.05
2022-10-31T06:54:10.218Z,21.27
2022-10-31T06:56:37.482Z,24.23
2022-10-31T06:59:04.983Z,29.02
2022-10-31T07:01:54.664Z,19.35
2022-10-31T07:04:21.846Z,26.45
2022-10-31T07:06:52.010Z,29.08
2022-10-31T07:09:19.866Z,24.10
2022-10-31T07:11:47.598Z,21.70
2022-10-31T07:14:15.409Z,24.23
2022-10-31T07:16:42.922Z,27.15
2022-10-31T07:19:12.970Z,26.45
2022-10-31T07:21:40.855Z,27.13
2022-10-31T07:24:09.048Z,26.08
2022-10-31T07:26:43.421Z,23.35
2022-10-31T07:29:11.281Z,35.75
2022-10-31T07:31:38.777Z,27.33
2022-10-31T07:34:13.067Z,27.65
2022-10-31T07:37:03.382Z,21.50
2022-10-31T07:39:30.837Z,28.33
2022-10-31T07:41:59.778Z,29.27
2022-10-31T07:44:30.910Z,26.35
2022-10-31T07:47:17.386Z,23.75
2022-10-31T07:50:03.082Z,27.42
2022-10-31T07:52:49.157Z,21.50
2022-10-31T07:55:35.658Z,26.10
2022-10-31T07:58:08.526Z,22.67
2022-10-31T08:00:40.421Z,22.52
2022-10-31T08:03:11.011Z,24.15
2022-10-31T08:05:57.882Z,24.75
2022-10-31T08:08:43.818Z,23.63
2022-10-31T08:11:11.161Z,23.75
2022-10-31T08:13:39.348Z,23.75
2022-10-31T08:16:08.607Z,21.48
2022-10-31T08:18:40.986Z,25.83
2022-10-31T08:21:12.812Z,22.02
2022-10-31T08:23:39.830Z,25.08
2022-10-31T08:26:08.623Z,22.88
2022-10-31T08:28:36.115Z,23.25
2022-10-31T08:31:05.800Z,28.50
2022-10-31T08:33:41.664Z,17.35
2022-10-31T08:36:09.043Z,20.13
2022-10-31T08:38:59.119Z,21.65
2022-10-31T08:41:29.422Z,23.38
2022-10-31T08:43:56.523Z,17.13
2022-10-31T08:46:23.646Z,22.38
2022-10-31T08:48:50.945Z,17.50
2022-10-31T08:51:19.989Z,14.93
2022-10-31T08:53:49.109Z,18.85
2022-10-31T08:56:34.576Z,16.20
2022-10-31T08:59:04.341Z,14.52
2022-10-31T09:01:51.815Z,23.27
2022-10-31T09:04:19.174Z,13.25
2022-10-31T09:07:08.042Z,20.80
2022-10-31T09:09:33.157Z,15.13
2022-10-31T09:12:00.753Z,15.35
2022-10-31T09:14:46.293Z,15.75
2022-10-31T09:17:33.813Z,15.50
2022-10-31T09:20:17.568Z,18.30
2022-10-31T09:22:45.369Z,11.70
2022-10-31T09:25:13.005Z,15.50
2022-10-31T09:27:41.705Z,17.08
2022-10-31T09:30:10.237Z,18.50
2022-10-31T09:32:37.544Z,15.32
2022-10-31T09:35:06.823Z,17.67
2022-10-31T09:37:34.036Z,19.23
2022-10-31T09:40:01.389Z,17.48
2022-10-31T09:43:05.037Z,15.88
2022-10-31T09:45:45.765Z,14.20
2022-10-31T09:48:38.137Z,17.63
2022-10-31T09:51:39.893Z,14.35
2022-10-31T09:54:30.532Z,16.35
2022-10-31T09:57:01.231Z,19.10
2022-10-31T09:59:40.625Z,22.27
2022-10-31T10:02:31.148Z,16.63
2022-10-31T10:05:19.236Z,16.02
2022-10-31T10:08:00.775Z,14.50
2022-10-31T10:11:07.296Z,11.82
2022-10-31T10:14:04.842Z,13.88
2022-10-31T10:16:53.322Z,16.33
2022-10-31T10:19:34.951Z,14.55
2022-10-31T10:22:29.850Z,17.63
2022-10-31T10:25:02.855Z,15.65
2022-10-31T10:27:44.355Z,15.10
2022-10-31T10:30:16.581Z,18.47
2022-10-31T10:35:33.494Z,18.05
2022-10-31T10:38:16.321Z,15.30
2022-10-31T10:40:44.042Z,15.57
2022-10-31T10:43:36.970Z,12.80
2022-10-31T10:46:38.829Z,17.27
2022-10-31T10:49:19.314Z,13.73
2022-10-31T10:52:13.074Z,18.40
2022-10-31T10:55:00.630Z,14.50
2022-10-31T10:57:43.114Z,18.88
2022-10-31T11:02:58.381Z,14.38
2022-10-31T11:05:43.386Z,14.38
2022-10-31T11:08:10.477Z,14.77
2022-10-31T11:10:38.428Z,16.58
2022-10-31T11:13:08.024Z,16.20
2022-10-31T11:15:51.735Z,23.75
2022-10-31T11:21:00.630Z,17.58
2022-10-31T11:23:29.371Z,11.98
2022-10-31T11:25:57.855Z,21.00
2022-10-31T11:28:26.135Z,17.20
2022-10-31T11:31:00.386Z,23.08
2022-10-31T11:33:48.919Z,14.40
2022-10-31T11:36:23.594Z,19.42
2022-10-31T11:38:51.668Z,18.17
2022-10-31T11:41:43.299Z,16.17
2022-10-31T11:44:18.494Z,16.02
2022-10-31T11:46:54.825Z,21.50
2022-10-31T11:49:21.857Z,21.33
2022-10-31T11:51:54.889Z,21.70
2022-10-31T11:55:00.804Z,17.48
2022-10-31T11:57:43.791Z,21.48
2022-10-31T12:00:24.641Z,16.38
2022-10-31T12:02:52.591Z,19.98
2022-10-31T12:05:24.328Z,16.35
2022-10-31T12:07:51.511Z,20.00
2022-10-31T12:10:26.218Z,20.02
2022-10-31T12:13:33.074Z,18.67
2022-10-31T12:16:24.928Z,15.60
2022-10-31T12:19:04.074Z,21.42
2022-10-31T12:21:59.547Z,17.73
2022-10-31T12:24:29.560Z,17.02
2022-10-31T12:27:11.796Z,21.83
2022-10-31T12:32:44.437Z,26.23
2022-10-31T12:38:05.833Z,22.52
2022-10-31T12:40:47.986Z,20.13
2022-10-31T12:43:25.597Z,22.02
2022-10-31T12:45:57.979Z,21.15
2022-10-31T12:51:10.864Z,20.88
2022-10-31T12:53:44.124Z,27.90
2022-10-31T12:56:48.082Z,20.73
2022-10-31T12:59:18.006Z,23.95
2022-10-31T13:01:49.001Z,27.33
2022-10-31T13:04:22.457Z,20.02
2022-10-31T13:06:59.214Z,19.83
2022-10-31T13:09:42.759Z,20.33
2022-10-31T13:12:14.499Z,22.27
2022-10-31T13:14:45.827Z,19.17
2022-10-31T13:17:36.216Z,17.83
2022-10-31T13:20:23.511Z,17.90
2022-10-31T13:23:09.940Z,15.02
2022-10-31T13:25:50.380Z,15.65
2022-10-31T13:28:34.895Z,17.33
2022-10-31T13:31:02.856Z,18.05
2022-10-31T13:33:39.343Z,22.55
2022-10-31T13:36:35.319Z,14.80
2022-10-31T13:39:21.648Z,20.70
2022-10-31T13:41:54.979Z,16.05
2022-10-31T13:44:37.372Z,21.70
2022-10-31T13:47:25.514Z,17.20
2022-10-31T13:49:52.688Z,15.20
2022-10-31T13:52:27.558Z,20.13
2022-10-31T13:54:58.313Z,13.70
2022-10-31T13:57:44.191Z,16.48
2022-10-31T14:00:25.329Z,12.50
2022-10-31T14:02:58.581Z,16.50
2022-10-31T14:05:31.002Z,14.23
2022-10-31T14:08:01.505Z,15.77
2022-10-31T14:10:36.071Z,14.50
2022-10-31T14:13:16.749Z,14.50
2022-10-31T14:16:03.480Z,21.20
2022-10-31T14:18:34.750Z,14.05
2022-10-31T14:21:01.676Z,24.00
2022-10-31T14:23:31.887Z,16.42
2022-10-31T14:26:30.767Z,13.45
2022-10-31T14:29:02.164Z,19.70
2022-10-31T14:31:37.938Z,17.13
2022-10-31T14:34:32.158Z,20.25
2022-10-31T14:37:41.217Z,14.80
2022-10-31T14:40:41.503Z,16.67
2022-10-31T14:43:42.326Z,15.25
2022-10-31T14:46:19.800Z,19.35
2022-10-31T14:49:00.438Z,11.18
2022-10-31T14:51:39.706Z,13.60
2022-10-31T14:54:11.429Z,14.63
2022-10-31T14:56:47.085Z,10.90
2022-10-31T14:59:17.522Z,17.05
2022-10-31T15:01:58.050Z,12.18
2022-10-31T15:04:30.992Z,19.33
2022-10-31T15:07:12.323Z,14.82
2022-10-31T15:09:42.003Z,14.05
2022-10-31T15:12:27.879Z,9.68
2022-10-31T15:14:55.217Z,10.82
2022-10-31T15:17:24.122Z,8.70
2022-10-31T15:19:52.110Z,11.23
2022-10-31T15:22:21.787Z,9.45
2022-10-31T15:24:49.954Z,8.85
2022-10-31T15:27:18.477Z,12.60
2022-10-31T15:29:50.361Z,9.63
2022-10-31T15:32:21.324Z,6.93
2022-10-31T15:34:48.412Z,11.15
2022-10-31T15:37:17.616Z,10.10
2022-10-31T15:39:46.266Z,11.60
2022-10-31T15:42:20.249Z,12.10
2022-10-31T15:44:53.004Z,10.75
2022-10-31T15:47:23.007Z,11.73
2022-10-31T15:49:53.595Z,12.40
2022-10-31T15:52:35.406Z,10.73
2022-10-31T15:55:18.933Z,5.35
2022-10-31T15:58:12.839Z,6.22
2022-10-31T16:00:40.206Z,14.30
2022-10-31T16:03:20.765Z,13.35
2022-10-31T16:05:54.833Z,7.60
2022-10-31T16:08:30.577Z,9.52
2022-10-31T16:11:23.741Z,7.55
2022-10-31T16:14:10.464Z,11.60
2022-10-31T16:16:49.299Z,6.50
2022-10-31T16:19:37.657Z,5.82
2022-10-31T16:22:14.321Z,8.60
2022-10-31T16:24:52.757Z,6.00
2022-10-31T16:27:31.710Z,9.07
2022-10-31T16:30:05.443Z,11.30
2022-10-31T16:32:35.033Z,9.30
2022-10-31T16:35:09.409Z,13.05
2022-10-31T16:37:43.106Z,9.60
2022-10-31T16:40:14.414Z,11.13
2022-10-31T16:42:42.486Z,10.67
2022-10-31T16:45:27.750Z,9.82
2022-10-31T16:47:55.176Z,8.18
2022-10-31T16:50:25.001Z,9.35
2022-10-31T16:53:12.899Z,9.52
2022-10-31T16:55:47.587Z,12.25
2022-10-31T16:58:21.762Z,10.02
2022-10-31T17:00:49.005Z,11.15
2022-10-31T17:03:16.147Z,11.70
2022-10-31T17:05:43.390Z,11.85
2022-10-31T17:08:10.382Z,8.82
2022-10-31T17:10:37.969Z,9.68
2022-10-31T17:13:08.594Z,10.35
2022-10-31T17:15:49.698Z,17.50
2022-10-31T17:18:20.475Z,9.45
2022-10-31T17:20:51.188Z,11.07
2022-10-31T17:23:18.253Z,12.77
2022-10-31T17:25:45.208Z,9.02
2022-10-31T17:28:14.342Z,9.68
2022-10-31T17:30:43.369Z,10.38
2022-10-31T17:33:15.651Z,11.38
2022-10-31T17:35:44.862Z,7.95
2022-10-31T17:38:12.372Z,9.40
2022-10-31T17:40:42.202Z,7.07
2022-10-31T17:43:11.175Z,11.63
2022-10-31T17:45:42.441Z,8.15
2022-10-31T17:48:13.010Z,8.80
2022-10-31T17:50:40.538Z,12.90
2022-10-31T17:53:07.441Z,12.70
2022-10-31T17:55:37.066Z,7.78
2022-10-31T17:58:05.310Z,10.48
2022-10-31T18:00:33.131Z,9.57
2022-10-31T18:03:01.724Z,13.75
2022-10-31T18:05:29.045Z,8.40
2022-10-31T18:07:58.295Z,13.43
2022-10-31T18:10:27.878Z,15.15
2022-10-31T18:12:55.000Z,8.50
2022-10-31T18:15:21.942Z,9.02
2022-10-31T18:17:49.157Z,12.07
2022-10-31T18:20:16.731Z,14.52
2022-10-31T18:22:43.789Z,6.85
2022-10-31T18:25:10.728Z,11.85
2022-10-31T18:27:37.762Z,12.77
2022-10-31T18:30:05.060Z,8.85
2022-10-31T18:32:32.044Z,8.93
2022-10-31T18:35:01.366Z,12.65
2022-10-31T18:37:28.305Z,10.93
2022-10-31T18:39:55.316Z,12.20
2022-10-31T18:42:22.183Z,12.23
2022-10-31T18:44:49.251Z,16.38
2022-10-31T18:47:17.733Z,12.40
2022-10-31T18:49:45.179Z,11.07
2022-10-31T18:52:12.097Z,10.70
2022-10-31T18:54:39.281Z,9.40
2022-10-31T18:57:06.818Z,18.25
2022-10-31T18:59:34.120Z,16.98
2022-10-31T19:02:01.089Z,11.73
2022-10-31T19:04:28.593Z,17.63
2022-10-31T19:06:56.073Z,14.30
2022-10-31T19:09:24.437Z,10.27
2022-10-31T19:11:52.138Z,16.40
2022-10-31T19:14:19.342Z,11.90
2022-10-31T19:16:46.459Z,9.68
2022-10-31T19:19:13.490Z,14.45
2022-10-31T19:21:40.637Z,7.95
2022-10-31T19:24:09.508Z,6.75
2022-10-31T19:26:36.508Z,12.68
2022-10-31T19:29:03.856Z,17.73
2022-10-31T19:31:31.043Z,11.13
2022-10-31T19:33:58.048Z,10.23
2022-10-31T19:36:24.999Z,10.30
2022-10-31T19:38:53.059Z,8.90
2022-10-31T19:41:22.351Z,10.30
2022-10-31T19:43:49.618Z,10.70
2022-10-31T19:46:27.653Z,8.70
2022-10-31T19:49:01.620Z,9.52
2022-10-31T19:51:28.687Z,16.25
2022-10-31T19:53:55.908Z,14.02
2022-10-31T19:56:25.275Z,8.70
2022-10-31T19:58:52.573Z,11.48
2022-10-31T20:01:22.385Z,10.93
2022-10-31T20:03:50.268Z,12.45
2022-10-31T20:06:27.735Z,13.90
2022-10-31T20:08:56.250Z,12.70
2022-10-31T20:11:25.319Z,12.18
2022-10-31T20:13:54.238Z,8.32
2022-10-31T20:16:21.479Z,13.70
2022-10-31T20:18:48.607Z,10.18
2022-10-31T20:21:18.624Z,12.38
2022-10-31T20:23:47.671Z,9.70
2022-10-31T20:26:18.249Z,10.90
2022-10-31T20:28:46.549Z,12.45
2022-10-31T20:31:19.404Z,13.95
2022-10-31T20:33:47.639Z,13.73
2022-10-31T20:36:15.465Z,10.23
2022-10-31T20:38:42.860Z,10.30
2022-10-31T20:41:11.406Z,11.50
2022-10-31T20:43:39.090Z,10.00
2022-10-31T20:46:07.821Z,11.35
2022-10-31T20:48:35.064Z,9.90
2022-10-31T20:51:10.082Z,10.57
2022-10-31T20:53:37.178Z,9.43
2022-10-31T20:56:09.068Z,13.00
2022-10-31T20:58:37.458Z,11.52
2022-10-31T21:01:08.206Z,10.02
2022-10-31T21:03:36.602Z,12.52
2022-10-31T21:06:04.792Z,14.80
2022-10-31T21:08:32.820Z,14.05
2022-10-31T21:11:00.668Z,15.80
2022-10-31T21:13:31.892Z,10.57
2022-10-31T21:16:02.311Z,16.08
2022-10-31T21:18:30.254Z,13.88
2022-10-31T21:20:57.645Z,11.23
2022-10-31T21:23:24.760Z,9.88
2022-10-31T21:25:53.138Z,14.02
2022-10-31T21:28:20.286Z,12.43
2022-10-31T21:30:50.982Z,10.15
2022-10-31T21:33:18.714Z,14.13
2022-10-31T21:35:50.919Z,18.98
2022-10-31T21:40:45.352Z,11.63
2022-10-31T21:43:12.404Z,13.63
2022-10-31T21:45:39.336Z,11.32
2022-10-31T21:48:07.274Z,13.40
2022-10-31T21:50:35.189Z,12.10
2022-10-31T21:53:22.103Z,11.07
2022-10-31T21:55:49.286Z,12.38
2022-10-31T21:58:16.456Z,16.48
2022-10-31T22:00:43.619Z,20.40
2022-10-31T22:03:10.510Z,10.50
2022-10-31T22:05:37.531Z,12.13
2022-10-31T22:08:04.897Z,12.57
2022-10-31T22:10:32.002Z,11.43
2022-10-31T22:12:58.842Z,11.65
2022-10-31T22:15:26.033Z,13.15
2022-10-31T22:17:53.769Z,13.75
2022-10-31T22:20:21.629Z,12.75
2022-10-31T22:22:48.781Z,14.07
2022-10-31T22:25:16.045Z,16.90
2022-10-31T22:27:43.393Z,14.20
2022-10-31T22:30:10.895Z,15.35
2022-10-31T22:32:37.856Z,13.57
2022-10-31T22:35:05.210Z,8.68
2022-10-31T22:37:32.383Z,15.77
2022-10-31T22:39:59.500Z,12.65
2022-10-31T22:42:26.642Z,11.05
2022-10-31T22:44:53.756Z,13.20
2022-10-31T22:47:20.735Z,12.68
2022-10-31T22:49:49.167Z,9.63
2022-10-31T22:52:16.087Z,10.75
2022-10-31T22:54:43.184Z,16.10
2022-10-31T22:57:10.516Z,13.60
2022-10-31T22:59:37.537Z,11.85
2022-10-31T23:02:08.430Z,11.50
2022-10-31T23:04:35.863Z,12.73
2022-10-31T23:07:03.298Z,11.50
2022-10-31T23:09:30.520Z,8.38
2022-10-31T23:12:17.283Z,13.05
2022-10-31T23:14:44.267Z,9.25
2022-10-31T23:17:17.567Z,15.40
2022-10-31T23:19:45.999Z,16.40
2022-10-31T23:22:13.279Z,8.25
2022-10-31T23:24:47.489Z,8.27
2022-10-31T23:27:20.359Z,10.15
2022-10-31T23:29:57.999Z,8.05
2022-10-31T23:32:31.050Z,10.93
2022-10-31T23:34:59.887Z,11.95
2022-10-31T23:37:30.234Z,12.50
2022-10-31T23:39:57.530Z,9.98
2022-10-31T23:42:26.774Z,11.52
2022-10-31T23:44:54.140Z,9.02
2022-10-31T23:47:21.758Z,12.10
2022-10-31T23:49:49.169Z,11.02
2022-10-31T23:52:17.489Z,12.05
2022-10-31T23:54:44.929Z,10.35
2022-10-31T23:57:14.336Z,11.88
2022-10-31T23:59:41.592Z,9.60
